^^
Saratoga-Weather Station Historical Data
Daily Summary for May 11, 2021 Units:  English    Metric   Both
Daily Weekly Monthly Yearly Custom
  High: Low: Average:
Temperature: 59 °F 50.4 °F 53.4 °F
Dew Point: 53.6 °F 48.7 °F 50.7 °F
Humidity: 96% 80% 91%
Wind Speed: 4.9mph 0mph 0.6mph
Wind Gust: 8mph - -
Wind- - WSW
Pressure: 29.8 in 29.7 in -
Precipitation: 0 in    
Historical Graphs
 
 
Tabular Data for May 11, 2021
Time Temperature Dew Point Pressure Wind Wind Speed Wind Gust Humidity Rainfall Rate (Hourly) solar
00:03 54.3 °F 51.4 °F 29.8 in NNW 0.9 mph 1 mph 90% 0 in 0 W/m2
00:08 54.3 °F 51.4 °F 29.8 in Calm     90% 0 in 0 W/m2
00:13 54.3 °F 51.4 °F 29.8 in Calm     90% 0 in 0 W/m2
00:18 54.3 °F 51.4 °F 29.8 in Calm     90% 0 in 0 W/m2
00:23 54.3 °F 51.4 °F 29.8 in Calm   2 mph 90% 0 in 0 W/m2
00:28 54.1 °F 51.3 °F 29.8 in Calm     90% 0 in 0 W/m2
00:33 54.1 °F 51.3 °F 29.8 in Calm   2 mph 90% 0 in 0 W/m2
00:38 54.1 °F 51.3 °F 29.8 in Calm     90% 0 in 0 W/m2
00:43 54.1 °F 51.3 °F 29.8 in Calm     90% 0 in 0 W/m2
00:48 54 °F 51.4 °F 29.8 in Calm     91% 0 in 0 W/m2
00:53 54 °F 51.4 °F 29.8 in Calm   1 mph 91% 0 in 0 W/m2
00:58 54 °F 51.4 °F 29.8 in Calm     91% 0 in 0 W/m2
01:03 53.8 °F 51.3 °F 29.8 in Calm   1 mph 91% 0 in 0 W/m2
01:09 53.8 °F 51.3 °F 29.8 in Calm     91% 0 in 0 W/m2
01:14 53.4 °F 50.9 °F 29.8 in Calm     91% 0 in 0 W/m2
01:19 53.2 °F 50.7 °F 29.8 in Calm     91% 0 in 0 W/m2
01:24 53.2 °F 50.7 °F 29.8 in Calm     91% 0 in 0 W/m2
01:29 53.1 °F 50.7 °F 29.8 in Calm     92% 0 in 0 W/m2
01:34 52.9 °F 50.5 °F 29.8 in ESE 0.9 mph 2 mph 92% 0 in 0 W/m2
01:39 52.9 °F 50.5 °F 29.8 in ESE 0.9 mph 3 mph 92% 0 in 0 W/m2
01:44 52.9 °F 50.5 °F 29.8 in ESE 2 mph 2 mph 92% 0 in 0 W/m2
01:49 52.9 °F 50.5 °F 29.8 in Calm   2 mph 92% 0 in 0 W/m2
01:54 52.9 °F 50.9 °F 29.8 in Calm     93% 0 in 0 W/m2
01:59 52.9 °F 50.5 °F 29.8 in Calm   2 mph 92% 0 in 0 W/m2
02:04 52.7 °F 50.4 °F 29.8 in Calm     92% 0 in 0 W/m2
02:09 52.5 °F 50.2 °F 29.8 in Calm     92% 0 in 0 W/m2
02:14 52.3 °F 50 °F 29.8 in Calm     92% 0 in 0 W/m2
02:19 52.2 °F 49.8 °F 29.8 in Calm     92% 0 in 0 W/m2
02:24 52 °F 49.6 °F 29.8 in Calm     92% 0 in 0 W/m2
02:29 51.8 °F 49.8 °F 29.8 in Calm     93% 0 in 0 W/m2
02:34 51.6 °F 49.6 °F 29.8 in Calm     93% 0 in 0 W/m2
02:39 51.6 °F 49.6 °F 29.8 in Calm     93% 0 in 0 W/m2
02:44 51.4 °F 49.5 °F 29.8 in Calm     93% 0 in 0 W/m2
02:49 51.3 °F 49.3 °F 29.8 in Calm     93% 0 in 0 W/m2
02:54 51.3 °F 49.3 °F 29.8 in Calm     93% 0 in 0 W/m2
02:59 51.1 °F 49.1 °F 29.8 in Calm     93% 0 in 0 W/m2
03:04 51.1 °F 49.1 °F 29.8 in Calm     93% 0 in 0 W/m2
03:09 50.9 °F 48.9 °F 29.8 in Calm     93% 0 in 0 W/m2
03:14 50.9 °F 49.3 °F 29.8 in Calm     94% 0 in 0 W/m2
03:19 50.9 °F 49.3 °F 29.8 in Calm     94% 0 in 0 W/m2
03:24 50.7 °F 49.1 °F 29.8 in Calm     94% 0 in 0 W/m2
03:29 50.7 °F 49.1 °F 29.8 in Calm     94% 0 in 0 W/m2
03:34 50.7 °F 49.1 °F 29.8 in Calm     94% 0 in 0 W/m2
03:39 50.7 °F 49.1 °F 29.8 in Calm     94% 0 in 0 W/m2
03:44 50.7 °F 49.1 °F 29.8 in Calm     94% 0 in 0 W/m2
03:49 50.7 °F 49.1 °F 29.8 in Calm     94% 0 in 0 W/m2
03:54 50.7 °F 49.1 °F 29.8 in Calm     94% 0 in 0 W/m2
03:59 50.7 °F 49.1 °F 29.8 in Calm     94% 0 in 0 W/m2
04:04 50.5 °F 48.9 °F 29.8 in Calm     94% 0 in 0 W/m2
04:09 50.5 °F 48.9 °F 29.8 in Calm     94% 0 in 0 W/m2
04:14 50.5 °F 48.9 °F 29.8 in Calm     94% 0 in 0 W/m2
04:19 50.4 °F 48.7 °F 29.8 in Calm     94% 0 in 0 W/m2
04:24 50.4 °F 48.7 °F 29.8 in Calm     94% 0 in 0 W/m2
04:29 50.4 °F 48.7 °F 29.8 in Calm     94% 0 in 0 W/m2
04:34 50.4 °F 48.7 °F 29.8 in Calm     94% 0 in 0 W/m2
04:39 50.4 °F 48.9 °F 29.8 in Calm     95% 0 in 0 W/m2
04:44 50.4 °F 48.9 °F 29.8 in Calm     95% 0 in 0 W/m2
04:49 50.4 °F 48.9 °F 29.8 in Calm     95% 0 in 0 W/m2
04:54 50.4 °F 48.9 °F 29.8 in Calm     95% 0 in 0 W/m2
04:59 50.4 °F 48.9 °F 29.8 in Calm     95% 0 in 0 W/m2
05:04 50.4 °F 48.9 °F 29.8 in Calm     95% 0 in 0 W/m2
05:09 50.4 °F 48.9 °F 29.8 in Calm     95% 0 in 0 W/m2
05:14 50.4 °F 48.9 °F 29.8 in Calm     95% 0 in 0 W/m2
05:19 50.4 °F 48.9 °F 29.8 in Calm     95% 0 in 0 W/m2
05:24 50.4 °F 48.9 °F 29.8 in Calm     95% 0 in 0 W/m2
05:29 50.5 °F 49.1 °F 29.8 in Calm     95% 0 in 0 W/m2
05:34 50.5 °F 49.1 °F 29.8 in Calm     95% 0 in 0 W/m2
05:39 50.5 °F 49.1 °F 29.8 in Calm     95% 0 in 0 W/m2
05:44 50.5 °F 49.1 °F 29.8 in Calm     95% 0 in 0 W/m2
05:49 50.5 °F 49.1 °F 29.8 in Calm     95% 0 in 0 W/m2
05:54 50.5 °F 49.1 °F 29.8 in South 2 mph 2 mph 95% 0 in 0 W/m2
05:59 50.5 °F 49.1 °F 29.8 in Calm   1 mph 95% 0 in 0 W/m2
06:04 50.5 °F 49.1 °F 29.8 in Calm     95% 0 in 7 W/m2
06:09 50.5 °F 49.1 °F 29.8 in Calm   1 mph 95% 0 in 12 W/m2
06:14 50.5 °F 49.1 °F 29.8 in Calm     95% 0 in 23 W/m2
06:19 50.5 °F 49.1 °F 29.7 in Calm     95% 0 in 39 W/m2
06:24 50.5 °F 49.1 °F 29.7 in Calm     95% 0 in 46 W/m2
06:29 50.5 °F 49.1 °F 29.7 in Calm     95% 0 in 65 W/m2
06:35 50.5 °F 49.1 °F 29.7 in Calm     95% 0 in 81 W/m2
06:40 50.7 °F 49.6 °F 29.7 in Calm     96% 0 in 70 W/m2
06:45 51.1 °F 50 °F 29.7 in Calm     96% 0 in 54 W/m2
06:50 51.1 °F 50 °F 29.7 in Calm     96% 0 in 51 W/m2
06:55 51.3 °F 50.2 °F 29.7 in Calm   1 mph 96% 0 in 46 W/m2
07:00 51.4 °F 50.4 °F 29.7 in South 0.9 mph 2 mph 96% 0 in 42 W/m2
07:05 51.4 °F 50.4 °F 29.7 in Calm     96% 0 in 62 W/m2
07:10 51.4 °F 50.4 °F 29.7 in Calm   2 mph 96% 0 in 49 W/m2
07:15 51.6 °F 50.5 °F 29.7 in Calm     96% 0 in 49 W/m2
07:20 51.6 °F 50.5 °F 29.7 in Calm     96% 0 in 46 W/m2
07:25 51.6 °F 50.5 °F 29.7 in Calm     96% 0 in 58 W/m2
07:30 51.8 °F 50.7 °F 29.7 in Calm     96% 0 in 77 W/m2
07:35 52 °F 50.5 °F 29.7 in Calm     95% 0 in 84 W/m2
07:40 52.2 °F 51.1 °F 29.7 in Calm     96% 0 in 79 W/m2
07:45 52.2 °F 50.7 °F 29.7 in Calm     95% 0 in 60 W/m2
07:50 52.3 °F 50.9 °F 29.7 in Calm   2 mph 95% 0 in 60 W/m2
07:55 52.5 °F 51.1 °F 29.7 in NE 0.9 mph 2 mph 95% 0 in 72 W/m2
08:00 52.5 °F 51.1 °F 29.7 in Calm     95% 0 in 86 W/m2
08:05 52.5 °F 50.9 °F 29.7 in Calm     94% 0 in 77 W/m2
08:10 52.9 °F 51.3 °F 29.7 in Calm     94% 0 in 76 W/m2
08:15 52.9 °F 51.3 °F 29.7 in Calm     94% 0 in 86 W/m2
08:20 53.1 °F 51.4 °F 29.8 in Calm     94% 0 in 91 W/m2
08:25 53.2 °F 51.3 °F 29.8 in NE 0.9 mph 1 mph 93% 0 in 95 W/m2
08:30 53.2 °F 51.3 °F 29.8 in Calm   1 mph 93% 0 in 100 W/m2
08:35 53.4 °F 51.1 °F 29.8 in Calm   2 mph 92% 0 in 125 W/m2
08:40 54 °F 51.6 °F 29.8 in NE 0.9 mph 3 mph 92% 0 in 132 W/m2
08:45 54.1 °F 51.8 °F 29.8 in Calm   2 mph 92% 0 in 137 W/m2
08:50 54.1 °F 51.6 °F 29.8 in ENE 0.9 mph 2 mph 91% 0 in 116 W/m2
08:55 54.3 °F 51.8 °F 29.8 in Calm   2 mph 91% 0 in 105 W/m2
09:00 54.3 °F 51.8 °F 29.7 in East 2.9 mph 3 mph 91% 0 in 174 W/m2
09:05 54.5 °F 52 °F 29.8 in Calm   1 mph 91% 0 in 116 W/m2
09:10 54.5 °F 51.6 °F 29.7 in Calm   3 mph 90% 0 in 98 W/m2
09:15 54.5 °F 51.6 °F 29.7 in NNW 2 mph 2 mph 90% 0 in 116 W/m2
09:20 54.7 °F 51.8 °F 29.7 in Calm   1 mph 90% 0 in 158 W/m2
09:25 54.9 °F 51.6 °F 29.7 in WNW 0.9 mph 3 mph 89% 0 in 172 W/m2
09:30 54.9 °F 51.6 °F 29.7 in North 2 mph 3 mph 89% 0 in 244 W/m2
09:35 55.2 °F 52 °F 29.7 in NNW 0.9 mph 2 mph 89% 0 in 229 W/m2
09:40 55.6 °F 52.2 °F 29.7 in West 0.9 mph 4 mph 88% 0 in 262 W/m2
09:45 55.8 °F 52 °F 29.7 in Calm   3 mph 87% 0 in 239 W/m2
09:50 56.1 °F 52.3 °F 29.7 in West 2 mph 3 mph 87% 0 in 220 W/m2
09:55 56.1 °F 52 °F 29.7 in WNW 2.9 mph 4 mph 86% 0 in 185 W/m2
10:00 56.5 °F 52.3 °F 29.7 in WNW 2 mph 3 mph 86% 0 in 244 W/m2
10:05 56.7 °F 52.2 °F 29.7 in WNW 2.9 mph 6 mph 85% 0 in 267 W/m2
10:10 56.7 °F 51.8 °F 29.7 in WNW 0.9 mph 4 mph 84% 0 in 241 W/m2
10:15 56.8 °F 52 °F 29.7 in NNW 2 mph 7 mph 84% 0 in 271 W/m2
10:20 57 °F 52 °F 29.7 in West 4 mph 4 mph 83% 0 in 269 W/m2
10:25 57.2 °F 52.2 °F 29.7 in West 2 mph 4 mph 83% 0 in 462 W/m2
10:30 57.6 °F 52.2 °F 29.7 in West 4 mph 8 mph 82% 0 in 490 W/m2
10:35 57.7 °F 52.3 °F 29.7 in NW 0.9 mph 7 mph 82% 0 in 315 W/m2
10:40 57.9 °F 52.5 °F 29.7 in West 2.9 mph 4 mph 82% 0 in 443 W/m2
10:45 58.3 °F 52.2 °F 29.7 in NW 2 mph 3 mph 80% 0 in 367 W/m2
10:50 58.5 °F 52.3 °F 29.7 in NW 0.9 mph 2 mph 80% 0 in 332 W/m2
10:55 58.6 °F 52.5 °F 29.7 in NW 0.9 mph 3 mph 80% 0 in 225 W/m2
11:00 58.6 °F 52.5 °F 29.7 in West 2 mph 2 mph 80% 0 in 225 W/m2
11:05 58.6 °F 52.5 °F 29.7 in West 0.9 mph 4 mph 80% 0 in 241 W/m2
11:10 58.8 °F 52.7 °F 29.7 in WNW 0.9 mph 4 mph 80% 0 in 250 W/m2
11:15 58.8 °F 53.1 °F 29.7 in NW 0.9 mph 2 mph 81% 0 in 251 W/m2
11:20 59 °F 53.6 °F 29.7 in West 2.9 mph 4 mph 82% 0 in 271 W/m2
11:25 58.8 °F 52.7 °F 29.7 in SW 4 mph 5 mph 80% 0 in 218 W/m2
11:30 58.6 °F 52.9 °F 29.7 in West 0.9 mph 4 mph 81% 0 in 171 W/m2
11:35 58.5 °F 53.1 °F 29.7 in WSW 0.9 mph 4 mph 82% 0 in 128 W/m2
11:40 58.1 °F 52.9 °F 29.7 in West 4 mph 4 mph 83% 0 in 83 W/m2
11:45 57.7 °F 52.9 °F 29.7 in NW 4.9 mph 7 mph 84% 0 in 69 W/m2
11:50 57.4 °F 52.9 °F 29.7 in West 2 mph 6 mph 85% 0 in 69 W/m2
11:55 57 °F 52.9 °F 29.7 in NW 2.9 mph 6 mph 86% 0 in 69 W/m2
12:01 56.8 °F 52.7 °F 29.7 in WSW 2 mph 3 mph 86% 0 in 63 W/m2
12:06 56.8 °F 53.1 °F 29.7 in WNW 2 mph 3 mph 87% 0 in 63 W/m2
12:11 56.8 °F 53.1 °F 29.8 in West 0.9 mph 5 mph 87% 0 in 69 W/m2
12:16 56.8 °F 53.1 °F 29.8 in WNW 2 mph 3 mph 87% 0 in 69 W/m2
12:21 56.8 °F 53.1 °F 29.8 in West 0.9 mph 2 mph 87% 0 in 69 W/m2
12:26 56.8 °F 53.1 °F 29.8 in Calm     87% 0 in 58 W/m2
12:31 56.8 °F 53.1 °F 29.8 in WNW 0.9 mph 4 mph 87% 0 in 62 W/m2
12:36 56.8 °F 53.2 °F 29.8 in West 2 mph 4 mph 88% 0 in 79 W/m2
12:41 56.8 °F 53.2 °F 29.8 in West 0.9 mph 2 mph 88% 0 in 91 W/m2
Juneau County Weather
Compliments of Weather Underground - 2 mb